createdAt,value
2023-02-03T00:01:56.732Z,100421.55
2023-02-03T00:04:23.539Z,100420.52
2023-02-03T00:06:51.106Z,100419.65
2023-02-03T00:09:18.559Z,100411.23
2023-02-03T00:11:45.311Z,100410.36
2023-02-03T00:14:12.076Z,100406.88
2023-02-03T00:16:38.913Z,100404.75
2023-02-03T00:19:05.948Z,100415.48
2023-02-03T00:21:33.419Z,100418.00
2023-02-03T00:24:00.265Z,100419.84
2023-02-03T00:26:28.992Z,100421.84
2023-02-03T00:28:55.935Z,100425.03
2023-02-03T00:31:25.426Z,100422.76
2023-02-03T00:33:57.317Z,100426.13
2023-02-03T00:36:24.603Z,100432.06
2023-02-03T00:38:51.434Z,100433.51
2023-02-03T00:41:18.864Z,100437.57
2023-02-03T00:43:45.786Z,100437.02
2023-02-03T00:46:14.413Z,100442.08
2023-02-03T00:48:41.530Z,100441.33
2023-02-03T00:51:08.914Z,100450.48
2023-02-03T00:53:35.978Z,100455.56
2023-02-03T00:56:03.189Z,100458.08
2023-02-03T00:58:30.064Z,100454.60
2023-02-03T01:00:58.190Z,100457.11
2023-02-03T01:03:25.336Z,100455.14
2023-02-03T01:05:52.337Z,100455.45
2023-02-03T01:08:19.705Z,100460.38
2023-02-03T01:10:46.593Z,100457.30
2023-02-03T01:13:13.574Z,100459.89
2023-02-03T01:15:46.274Z,100458.90
2023-02-03T01:18:13.154Z,100458.58
2023-02-03T01:20:39.979Z,100458.94
2023-02-03T01:23:06.804Z,100466.73
2023-02-03T01:25:35.709Z,100462.52
2023-02-03T01:28:02.577Z,100461.05
2023-02-03T01:30:29.685Z,100460.29
2023-02-03T01:32:56.807Z,100461.04
2023-02-03T01:35:23.733Z,100454.41
2023-02-03T01:37:50.526Z,100450.70
2023-02-03T01:40:17.381Z,100457.75
2023-02-03T01:42:44.470Z,100459.17
2023-02-03T01:45:15.132Z,100459.40
2023-02-03T01:47:47.796Z,100450.23
2023-02-03T01:50:18.948Z,100441.36
2023-02-03T01:52:51.210Z,100440.52
2023-02-03T01:55:21.846Z,100430.27
2023-02-03T01:57:55.142Z,100430.75
2023-02-03T02:00:22.863Z,100436.23
2023-02-03T02:02:51.088Z,100443.58
2023-02-03T02:05:26.828Z,100446.15
2023-02-03T02:07:54.201Z,100441.57
2023-02-03T02:10:21.084Z,100442.26
2023-02-03T02:12:48.568Z,100434.73
2023-02-03T02:15:15.810Z,100431.66
2023-02-03T02:18:02.030Z,100432.70
2023-02-03T02:20:53.385Z,100427.43
2023-02-03T02:23:44.949Z,100422.85
2023-02-03T02:26:38.803Z,100416.70
2023-02-03T02:29:29.761Z,100412.91
2023-02-03T02:32:02.257Z,100416.32
2023-02-03T02:34:40.384Z,100420.08
2023-02-03T02:37:16.006Z,100420.55
2023-02-03T02:39:55.217Z,100413.54
2023-02-03T02:42:27.818Z,100409.04
2023-02-03T02:44:59.747Z,100405.73
2023-02-03T02:47:27.394Z,100404.97
2023-02-03T02:49:59.752Z,100407.98
2023-02-03T02:52:30.236Z,100408.27
2023-02-03T02:55:02.628Z,100414.02
2023-02-03T02:57:31.082Z,100414.26
2023-02-03T02:59:59.865Z,100414.05
2023-02-03T03:02:35.140Z,100408.52
2023-02-03T03:05:05.056Z,100406.57
2023-02-03T03:07:37.475Z,100411.10
2023-02-03T03:10:08.897Z,100417.35
2023-02-03T03:12:40.521Z,100412.68
2023-02-03T03:15:12.574Z,100414.68
2023-02-03T03:17:43.211Z,100412.41
2023-02-03T03:20:16.402Z,100411.98
2023-02-03T03:22:46.853Z,100418.39
2023-02-03T03:25:17.933Z,100416.46
2023-02-03T03:27:49.741Z,100415.02
2023-02-03T03:30:22.086Z,100415.11
2023-02-03T03:32:49.262Z,100411.66
2023-02-03T03:35:16.984Z,100405.63
2023-02-03T03:37:50.949Z,100402.32
2023-02-03T03:40:22.868Z,100398.52
2023-02-03T03:42:56.233Z,100395.23
2023-02-03T03:45:29.357Z,100393.80
2023-02-03T03:48:00.620Z,100390.67
2023-02-03T03:50:33.504Z,100397.80
2023-02-03T03:53:04.174Z,100396.05
2023-02-03T03:55:32.960Z,100395.88
2023-02-03T03:58:05.225Z,100398.10
2023-02-03T04:00:35.453Z,100398.07
2023-02-03T04:03:07.072Z,100398.20
2023-02-03T04:05:35.638Z,100398.87
2023-02-03T04:08:03.780Z,100402.61
2023-02-03T04:10:36.046Z,100399.54
2023-02-03T04:13:03.843Z,100398.34
2023-02-03T04:15:31.214Z,100399.86
2023-02-03T04:17:58.095Z,100400.35
2023-02-03T04:20:26.030Z,100403.08
2023-02-03T04:22:53.702Z,100400.72
2023-02-03T04:25:20.726Z,100401.05
2023-02-03T04:27:48.261Z,100399.66
2023-02-03T04:30:18.399Z,100398.81
2023-02-03T04:32:45.463Z,100399.31
2023-02-03T04:35:12.395Z,100398.96
2023-02-03T04:37:39.339Z,100402.05
2023-02-03T04:40:07.851Z,100403.89
2023-02-03T04:42:34.977Z,100401.96
2023-02-03T04:45:01.716Z,100401.23
2023-02-03T04:47:28.551Z,100401.55
2023-02-03T04:49:55.354Z,100395.72
2023-02-03T04:52:22.050Z,100395.03
2023-02-03T04:54:48.769Z,100393.01
2023-02-03T04:57:15.822Z,100394.53
2023-02-03T04:59:42.520Z,100393.33
2023-02-03T05:02:09.386Z,100384.45
2023-02-03T05:04:36.787Z,100377.79
2023-02-03T05:07:03.767Z,100378.80
2023-02-03T05:09:31.154Z,100376.23
2023-02-03T05:11:58.066Z,100376.07
2023-02-03T05:14:24.905Z,100374.02
2023-02-03T05:16:51.739Z,100370.98
2023-02-03T05:19:18.880Z,100365.73
2023-02-03T05:21:45.624Z,100363.00
2023-02-03T05:24:12.732Z,100360.58
2023-02-03T05:26:39.571Z,100363.45
2023-02-03T05:29:06.514Z,100359.70
2023-02-03T05:31:33.840Z,100356.64
2023-02-03T05:34:01.185Z,100355.62
2023-02-03T05:36:27.917Z,100359.03
2023-02-03T05:38:54.826Z,100355.27
2023-02-03T05:41:39.165Z,100353.23
2023-02-03T05:44:06.096Z,100353.56
2023-02-03T05:46:33.194Z,100353.05
2023-02-03T05:49:00.062Z,100351.34
2023-02-03T05:51:26.828Z,100349.10
2023-02-03T05:53:54.214Z,100346.70
2023-02-03T05:56:21.009Z,100344.81
2023-02-03T05:58:47.815Z,100346.30
2023-02-03T06:01:14.731Z,100345.65
2023-02-03T06:03:43.177Z,100343.09
2023-02-03T06:06:11.457Z,100350.45
2023-02-03T06:08:38.303Z,100346.06
2023-02-03T06:11:05.239Z,100345.75
2023-02-03T06:13:32.313Z,100344.95
2023-02-03T06:15:59.067Z,100338.18
2023-02-03T06:18:25.988Z,100333.46
2023-02-03T06:20:53.073Z,100331.50
2023-02-03T06:23:20.286Z,100327.80
2023-02-03T06:25:48.599Z,100320.31
2023-02-03T06:28:15.580Z,100320.31
2023-02-03T06:30:42.609Z,100315.39
2023-02-03T06:33:09.888Z,100314.90
2023-02-03T06:35:36.613Z,100314.23
2023-02-03T06:38:04.484Z,100304.52
2023-02-03T06:40:31.963Z,100301.13
2023-02-03T06:42:58.923Z,100298.45
2023-02-03T06:45:26.145Z,100299.15
2023-02-03T06:47:53.056Z,100296.42
2023-02-03T06:50:20.130Z,100292.55
2023-02-03T06:53:03.261Z,100285.58
2023-02-03T06:55:30.375Z,100284.63
2023-02-03T06:57:57.232Z,100276.33
2023-02-03T07:00:25.511Z,100266.73
2023-02-03T07:02:58.077Z,100263.33
2023-02-03T07:05:28.002Z,100260.46
2023-02-03T07:07:55.330Z,100256.55
2023-02-03T07:10:22.949Z,100253.48
2023-02-03T07:12:51.887Z,100250.04
2023-02-03T07:15:19.350Z,100241.96
2023-02-03T07:17:54.570Z,100233.17
2023-02-03T07:20:24.053Z,100230.20
2023-02-03T07:22:56.378Z,100221.11
2023-02-03T07:25:25.274Z,100218.11
2023-02-03T07:27:53.044Z,100218.73
2023-02-03T07:30:20.465Z,100220.79
2023-02-03T07:32:50.847Z,100218.77
2023-02-03T07:35:18.888Z,100216.14
2023-02-03T07:37:46.583Z,100215.04
2023-02-03T07:40:15.106Z,100212.34
2023-02-03T07:42:44.338Z,100203.28
2023-02-03T07:45:13.791Z,100198.69
2023-02-03T07:47:41.113Z,100190.45
2023-02-03T07:50:08.871Z,100189.58
2023-02-03T07:52:35.878Z,100178.24
2023-02-03T07:55:02.649Z,100172.40
2023-02-03T07:57:30.138Z,100170.35
2023-02-03T07:59:57.425Z,100164.69
2023-02-03T08:02:24.758Z,100156.98
2023-02-03T08:04:52.040Z,100153.39
2023-02-03T08:07:19.034Z,100152.88
2023-02-03T08:09:46.472Z,100152.34
2023-02-03T08:12:13.346Z,100150.09
2023-02-03T08:14:40.347Z,100143.36
2023-02-03T08:17:07.300Z,100140.42
2023-02-03T08:19:34.264Z,100139.23
2023-02-03T08:22:02.192Z,100135.62
2023-02-03T08:24:29.358Z,100131.67
2023-02-03T08:26:56.304Z,100130.14
2023-02-03T08:29:23.678Z,100126.52
2023-02-03T08:31:50.586Z,100129.39
2023-02-03T08:34:17.617Z,100127.29
2023-02-03T08:36:47.115Z,100119.38
2023-02-03T08:39:14.028Z,100116.30
2023-02-03T08:41:40.899Z,100108.22
2023-02-03T08:44:08.510Z,100095.81
2023-02-03T08:46:36.522Z,100091.27
2023-02-03T08:49:03.920Z,100090.48
2023-02-03T08:51:31.591Z,100084.44
2023-02-03T08:53:58.421Z,100085.64
2023-02-03T08:56:27.707Z,100086.30
2023-02-03T08:58:56.056Z,100081.02
2023-02-03T09:01:24.095Z,100074.22
2023-02-03T09:03:51.011Z,100067.42
2023-02-03T09:06:20.709Z,100063.85
2023-02-03T09:08:49.339Z,100060.77
2023-02-03T09:11:17.564Z,100055.34
2023-02-03T09:13:46.171Z,100048.13
2023-02-03T09:16:13.374Z,100047.42
2023-02-03T09:18:40.310Z,100044.11
2023-02-03T09:21:09.002Z,100046.51
2023-02-03T09:23:36.256Z,100035.38
2023-02-03T09:26:05.959Z,100034.89
2023-02-03T09:28:33.570Z,100030.08
2023-02-03T09:31:03.815Z,100017.56
2023-02-03T09:33:30.778Z,100015.66
2023-02-03T09:35:58.961Z,100009.92
2023-02-03T09:38:26.827Z,100000.72
2023-02-03T09:41:10.652Z,100002.30
2023-02-03T09:43:43.221Z,99996.86
2023-02-03T09:46:13.790Z,99984.19
2023-02-03T09:48:48.374Z,99980.42
2023-02-03T09:51:23.575Z,99979.20
2023-02-03T09:53:58.661Z,99966.50
2023-02-03T09:56:32.816Z,99954.98
2023-02-03T09:59:01.583Z,99952.58
2023-02-03T10:01:35.943Z,99946.91
2023-02-03T10:04:07.623Z,99936.23
2023-02-03T10:06:38.039Z,99927.30
2023-02-03T10:09:19.796Z,99921.80
2023-02-03T10:12:07.617Z,99909.77
2023-02-03T10:14:47.887Z,99910.23
2023-02-03T10:17:31.434Z,99918.92
2023-02-03T10:20:04.731Z,99899.19
2023-02-03T10:22:35.259Z,99896.40
2023-02-03T10:25:07.453Z,99890.31
2023-02-03T10:27:36.432Z,99881.53
2023-02-03T10:30:08.241Z,99862.55
2023-02-03T10:32:37.829Z,99853.91
2023-02-03T10:35:07.080Z,99851.16
2023-02-03T10:37:43.106Z,99849.73
2023-02-03T10:40:16.181Z,99844.87
2023-02-03T10:43:02.900Z,99841.40
2023-02-03T10:45:30.444Z,99830.34
2023-02-03T10:47:59.081Z,99831.61
2023-02-03T10:50:31.994Z,99824.27
2023-02-03T10:53:24.673Z,99821.69
2023-02-03T10:56:06.961Z,99806.48
2023-02-03T10:58:35.291Z,99799.20
2023-02-03T11:01:10.902Z,99790.19
2023-02-03T11:03:39.283Z,99783.94
2023-02-03T11:06:12.666Z,99772.02
2023-02-03T11:08:44.062Z,99764.70
2023-02-03T11:11:14.698Z,99748.64
2023-02-03T11:13:42.273Z,99737.02
2023-02-03T11:16:15.969Z,99719.06
2023-02-03T11:18:47.896Z,99713.24
2023-02-03T11:21:19.180Z,99702.84
2023-02-03T11:23:54.309Z,99695.33
2023-02-03T11:26:27.552Z,99693.27
2023-02-03T11:28:58.405Z,99678.06
2023-02-03T11:31:27.998Z,99674.98
2023-02-03T11:34:21.043Z,99664.55
2023-02-03T11:36:48.123Z,99654.98
2023-02-03T11:39:22.243Z,99654.31
2023-02-03T11:41:49.812Z,99635.66
2023-02-03T11:44:22.073Z,99627.80
2023-02-03T11:46:51.534Z,99626.62
2023-02-03T11:49:39.629Z,99631.76
2023-02-03T11:52:17.735Z,99620.14
2023-02-03T11:54:55.474Z,99610.73
2023-02-03T11:57:35.188Z,99615.01
2023-02-03T12:00:17.080Z,99609.86
2023-02-03T12:03:23.845Z,99610.88
2023-02-03T12:06:10.560Z,99592.76
2023-02-03T12:08:53.709Z,99583.02
2023-02-03T12:11:32.229Z,99592.26
2023-02-03T12:14:32.846Z,99579.27
2023-02-03T12:17:28.007Z,99568.48
2023-02-03T12:20:08.182Z,99559.92
2023-02-03T12:22:45.211Z,99554.46
2023-02-03T12:25:27.527Z,99548.98
2023-02-03T12:28:05.306Z,99547.77
2023-02-03T12:30:36.438Z,99537.02
2023-02-03T12:33:13.022Z,99542.17
2023-02-03T12:35:41.091Z,99526.62
2023-02-03T12:38:18.334Z,99521.34
2023-02-03T12:40:52.140Z,99503.38
2023-02-03T12:43:30.050Z,99497.39
2023-02-03T12:46:02.781Z,99506.12
2023-02-03T12:48:34.782Z,99490.05
2023-02-03T12:51:06.557Z,99469.87
2023-02-03T12:53:40.908Z,99459.25
2023-02-03T12:56:12.949Z,99455.51
2023-02-03T12:58:45.330Z,99446.09
2023-02-03T13:01:18.951Z,99433.80
2023-02-03T13:03:52.536Z,99421.17
2023-02-03T13:06:25.833Z,99421.19
2023-02-03T13:08:59.939Z,99409.23
2023-02-03T13:11:35.150Z,99405.34
2023-02-03T13:14:07.277Z,99383.66
2023-02-03T13:16:39.238Z,99382.48
2023-02-03T13:19:14.179Z,99369.52
2023-02-03T13:21:43.168Z,99365.60
2023-02-03T13:24:12.355Z,99354.35
2023-02-03T13:26:59.457Z,99336.43
2023-02-03T13:29:51.131Z,99328.77
2023-02-03T13:32:32.561Z,99318.35
2023-02-03T13:35:34.160Z,99310.02
2023-02-03T13:38:23.640Z,99297.71
2023-02-03T13:41:02.246Z,99289.05
2023-02-03T13:43:38.782Z,99276.75
2023-02-03T13:46:09.446Z,99270.79
2023-02-03T13:48:38.012Z,99275.40
2023-02-03T13:51:14.792Z,99266.55
2023-02-03T13:53:45.475Z,99273.71
2023-02-03T13:56:22.055Z,99266.02
2023-02-03T13:59:02.787Z,99252.73
2023-02-03T14:01:40.024Z,99244.21
2023-02-03T14:04:09.697Z,99244.73
2023-02-03T14:07:05.498Z,99235.84
2023-02-03T14:09:47.040Z,99228.19
2023-02-03T14:12:32.122Z,99225.13
2023-02-03T14:15:06.741Z,99211.67
2023-02-03T14:18:29.002Z,99197.67
2023-02-03T14:21:11.076Z,99189.99
2023-02-03T14:23:46.978Z,99196.81
2023-02-03T14:26:24.904Z,99190.00
2023-02-03T14:28:54.087Z,99175.85
2023-02-03T14:31:28.624Z,99174.66
2023-02-03T14:34:13.412Z,99168.35
2023-02-03T14:36:48.895Z,99161.54
2023-02-03T14:39:58.760Z,99159.49
2023-02-03T14:43:08.559Z,99149.27
2023-02-03T14:46:19.487Z,99147.39
2023-02-03T14:49:04.654Z,99145.17
2023-02-03T14:51:48.987Z,99142.10
2023-02-03T14:54:29.232Z,99134.77
2023-02-03T14:57:18.447Z,99130.16
2023-02-03T14:59:49.719Z,99128.97
2023-02-03T15:02:20.663Z,99120.45
2023-02-03T15:04:50.921Z,99116.02
2023-02-03T15:07:47.307Z,99106.46
2023-02-03T15:10:19.896Z,99110.71
2023-02-03T15:12:51.920Z,99101.17
2023-02-03T15:15:31.084Z,99105.45
2023-02-03T15:18:01.202Z,99095.39
2023-02-03T15:20:38.795Z,99087.88
2023-02-03T15:23:18.375Z,99086.35
2023-02-03T15:25:45.511Z,99083.46
2023-02-03T15:28:20.945Z,99080.39
2023-02-03T15:30:52.681Z,99069.83
2023-02-03T15:33:22.758Z,99067.61
2023-02-03T15:35:56.240Z,99066.24
2023-02-03T15:38:28.441Z,99058.75
2023-02-03T15:40:59.302Z,99056.52
2023-02-03T15:43:31.727Z,99049.73
2023-02-03T15:46:06.689Z,99057.05
2023-02-03T15:48:38.330Z,99051.95
2023-02-03T15:51:10.780Z,99050.73
2023-02-03T15:53:47.767Z,99038.47
2023-02-03T15:56:23.216Z,99038.82
2023-02-03T15:58:50.991Z,99035.57
2023-02-03T16:01:26.247Z,99028.91
2023-02-03T16:03:54.288Z,99026.18
2023-02-03T16:06:27.373Z,99022.27
2023-02-03T16:08:55.053Z,99015.45
2023-02-03T16:11:34.205Z,99013.40
2023-02-03T16:14:03.453Z,99004.39
2023-02-03T16:16:34.263Z,99014.80
2023-02-03T16:19:03.972Z,99011.04
2023-02-03T16:21:34.746Z,99003.71
2023-02-03T16:24:02.335Z,99001.66
2023-02-03T16:26:30.908Z,98998.42
2023-02-03T16:29:31.878Z,98993.14
2023-02-03T16:32:16.932Z,98988.88
2023-02-03T16:35:01.868Z,98998.77
2023-02-03T16:37:48.699Z,98986.48
2023-02-03T16:40:33.536Z,98990.05
2023-02-03T16:43:17.790Z,98980.17
2023-02-03T16:46:02.141Z,98969.94
2023-02-03T16:48:46.680Z,98972.83
2023-02-03T16:51:17.476Z,98984.60
2023-02-03T16:53:48.422Z,98973.84
2023-02-03T16:56:17.885Z,98972.64
2023-02-03T16:58:45.124Z,98970.77
2023-02-03T17:01:13.220Z,98965.98
2023-02-03T17:03:40.718Z,98976.04
2023-02-03T17:06:11.114Z,98972.98
2023-02-03T17:08:40.133Z,98966.84
2023-02-03T17:11:09.841Z,98967.34
2023-02-03T17:13:37.886Z,98961.88
2023-02-03T17:16:12.542Z,98960.33
2023-02-03T17:18:39.703Z,98967.83
2023-02-03T17:21:11.713Z,98975.33
2023-02-03T17:23:38.882Z,98963.20
2023-02-03T17:26:06.586Z,98974.98
2023-02-03T17:28:34.131Z,98967.62
2023-02-03T17:31:03.055Z,98985.02
2023-02-03T17:33:31.191Z,98980.23
2023-02-03T17:36:07.451Z,98982.78
2023-02-03T17:55:05.346Z,98987.86
2023-02-03T17:57:34.553Z,98988.89
2023-02-03T18:00:01.566Z,98992.63
2023-02-03T18:02:28.645Z,98986.83
2023-02-03T18:04:56.002Z,98990.39
2023-02-03T18:07:22.844Z,98987.65
2023-02-03T18:09:49.687Z,98989.86
2023-02-03T18:12:16.766Z,98993.79
2023-02-03T18:14:43.536Z,99001.47
2023-02-03T18:17:11.128Z,98995.67
2023-02-03T18:19:38.320Z,99005.91
2023-02-03T18:22:05.793Z,99012.73
2023-02-03T18:24:33.011Z,99016.82
2023-02-03T18:27:00.765Z,99017.17
2023-02-03T18:29:27.824Z,99023.98
2023-02-03T18:31:55.351Z,99021.92
2023-02-03T18:34:22.235Z,99024.14
2023-02-03T18:36:49.059Z,99023.13
2023-02-03T18:39:16.515Z,99027.73
2023-02-03T18:41:43.299Z,99029.77
2023-02-03T18:44:10.195Z,99030.96
2023-02-03T18:46:37.099Z,99031.98
2023-02-03T18:49:03.936Z,99031.97
2023-02-03T18:51:30.935Z,99035.23
2023-02-03T18:54:04.331Z,99045.97
2023-02-03T18:56:35.569Z,99051.42
2023-02-03T18:59:02.687Z,99045.63
2023-02-03T19:01:31.285Z,99048.36
2023-02-03T19:04:00.248Z,99049.90
2023-02-03T19:06:30.086Z,99051.59
2023-02-03T19:08:56.952Z,99057.91
2023-02-03T19:11:24.117Z,99049.55
2023-02-03T19:13:51.100Z,99060.63
2023-02-03T19:16:18.986Z,99054.64
2023-02-03T19:18:46.179Z,99059.91
2023-02-03T19:21:14.211Z,99071.16
2023-02-03T19:23:41.365Z,99072.85
2023-02-03T19:26:08.436Z,99065.70
2023-02-03T19:28:35.781Z,99055.96
2023-02-03T19:31:08.798Z,99059.89
2023-02-03T19:33:36.139Z,99064.30
2023-02-03T19:36:02.927Z,99067.72
2023-02-03T19:38:29.763Z,99061.57
2023-02-03T19:40:56.803Z,99060.38
2023-02-03T19:43:24.852Z,99059.71
2023-02-03T19:45:52.043Z,99056.32
2023-02-03T19:48:18.885Z,99064.00
2023-02-03T19:50:47.411Z,99081.06
2023-02-03T19:53:15.778Z,99081.23
2023-02-03T19:55:44.555Z,99088.73
2023-02-03T19:58:11.954Z,99081.58
2023-02-03T20:00:39.316Z,99081.41
2023-02-03T20:03:06.413Z,99084.48
2023-02-03T20:05:33.858Z,99090.46
2023-02-03T20:08:00.948Z,99091.14
2023-02-03T20:10:28.416Z,99101.72
2023-02-03T20:12:56.054Z,99102.05
2023-02-03T20:15:23.016Z,99101.69
2023-02-03T20:17:49.834Z,99093.66
2023-02-03T20:20:18.600Z,99097.77
2023-02-03T20:22:46.682Z,99099.48
2023-02-03T20:25:13.536Z,99101.52
2023-02-03T20:27:40.504Z,99109.54
2023-02-03T20:30:09.037Z,99121.82
2023-02-03T20:32:36.951Z,99129.67
2023-02-03T20:35:05.043Z,99132.40
2023-02-03T20:37:32.212Z,99130.34
2023-02-03T20:39:58.986Z,99135.46
2023-02-03T20:42:25.804Z,99138.20
2023-02-03T20:44:52.758Z,99142.11
2023-02-03T20:47:22.277Z,99136.64
2023-02-03T20:49:49.771Z,99130.33
2023-02-03T20:52:17.967Z,99126.92
2023-02-03T20:54:44.890Z,99125.05
2023-02-03T20:57:17.257Z,99130.17
2023-02-03T20:59:45.609Z,99140.77
2023-02-03T21:02:22.879Z,99142.64
2023-02-03T21:05:00.762Z,99145.88
2023-02-03T21:07:30.750Z,99150.65
2023-02-03T21:09:58.271Z,99152.36
2023-02-03T21:12:25.338Z,99156.79
2023-02-03T21:14:53.560Z,99174.02
2023-02-03T21:17:23.315Z,99185.10
2023-02-03T21:19:50.605Z,99188.00
2023-02-03T21:22:21.591Z,99185.25
2023-02-03T21:24:52.921Z,99180.47
2023-02-03T21:27:29.703Z,99186.09
2023-02-03T21:29:57.640Z,99188.48
2023-02-03T21:32:26.704Z,99193.26
2023-02-03T21:34:53.679Z,99200.93
2023-02-03T21:37:42.561Z,99210.15
2023-02-03T21:40:30.221Z,99209.14
2023-02-03T21:42:58.372Z,99207.77
2023-02-03T21:45:38.953Z,99205.39
2023-02-03T21:48:26.189Z,99219.54
2023-02-03T21:50:53.493Z,99224.83
2023-02-03T21:53:26.751Z,99224.83
2023-02-03T21:55:53.704Z,99224.65
2023-02-03T21:58:28.950Z,99229.27
2023-02-03T22:00:57.661Z,99233.72
2023-02-03T22:03:36.479Z,99239.67
2023-02-03T22:06:17.693Z,99244.48
2023-02-03T22:08:46.402Z,99240.73
2023-02-03T22:11:13.865Z,99238.71
2023-02-03T22:13:40.827Z,99243.99
2023-02-03T22:16:08.576Z,99246.21
2023-02-03T22:18:35.443Z,99256.29
2023-02-03T22:21:03.303Z,99264.14
2023-02-03T22:23:30.296Z,99266.89
2023-02-03T22:25:57.138Z,99269.42
2023-02-03T22:28:24.057Z,99276.09
2023-02-03T22:30:51.207Z,99280.00
2023-02-03T22:33:18.205Z,99277.44
2023-02-03T22:35:45.094Z,99276.59
2023-02-03T22:38:12.040Z,99279.33
2023-02-03T22:40:38.856Z,99285.81
2023-02-03T22:43:05.652Z,99284.96
2023-02-03T22:45:32.583Z,99286.16
2023-02-03T22:48:00.448Z,99286.67
2023-02-03T22:50:35.591Z,99284.46
2023-02-03T22:53:04.377Z,99288.71
2023-02-03T22:55:31.928Z,99297.75
2023-02-03T22:57:59.278Z,99297.42
2023-02-03T23:00:28.278Z,99301.69
2023-02-03T23:02:55.641Z,99306.98
2023-02-03T23:05:23.564Z,99312.95
2023-02-03T23:07:51.031Z,99312.61
2023-02-03T23:10:20.378Z,99315.17
2023-02-03T23:12:47.204Z,99321.14
2023-02-03T23:15:14.924Z,99323.34
2023-02-03T23:17:42.083Z,99333.57
2023-02-03T23:20:12.701Z,99334.77
2023-02-03T23:22:39.767Z,99347.73
2023-02-03T23:25:07.626Z,99352.15
2023-02-03T23:27:34.666Z,99359.83
2023-02-03T23:30:01.700Z,99378.59
2023-02-03T23:32:29.155Z,99385.92
2023-02-03T23:35:13.978Z,99392.58
2023-02-03T23:37:41.108Z,99394.45
2023-02-03T23:40:09.728Z,99397.52
2023-02-03T23:42:36.993Z,99406.04
2023-02-03T23:45:07.768Z,99403.81
2023-02-03T23:47:34.693Z,99408.58
2023-02-03T23:50:01.456Z,99402.59
2023-02-03T23:52:35.705Z,99413.16
2023-02-03T23:55:02.922Z,99418.62
2023-02-03T23:57:29.772Z,99422.36
2023-02-03T23:59:56.537Z,99426.29
